Montevideo, MN (56265)

11:56 PM CST on February 13, 2016 (GMT -0600)
Near Chinhinta Park | | Change Station
CLOSE
Current Station
Personal Weather Station
Location: Montevideo, MN
Elevation: 1024 ft
Nearby Weather Stations
Active Advisory: Winter Weather Advisory Active Notice: Public Information Statement

Elev 1024 ft 44.94 °N, 95.72 °W | Updated 10 seconds ago

Light Snow
Light Snow
10.4 °F
Feels Like 3 °F
N
4.0
Wind Variable Wind from SE
Gusts 5.0 mph

Today
High -- | Low -- °F
--% Chance of Precip.
Yesterday
High -- | Low -- °F
Precip. -- in
Pressure 30.18 in
Visibility 7.0 miles
Clouds Overcast 7000 ft
Windchill 3 °F
Dew Point 5 °F
Humidity 78%
Rainfall 0.00 in
Snow Depth Not available.
7:27 AM 5:47 PM
Waxing Crescent, 38% visible
METAR KMVE 140534Z AUTO 18008KT 7SM -SN OVC070 M12/M15 A3018 RMK AO2
Pressure 30.18 in
Visibility 7.0 miles
Clouds Overcast 7000 ft
Windchill 3 °F
Dew Point 5 °F
Humidity 78%
Rainfall 0.00 in
Snow Depth Not available.
7:27 AM 5:47 PM
Waxing Crescent, 38% visible
METAR KMVE 140534Z AUTO 18008KT 7SM -SN OVC070 M12/M15 A3018 RMK AO2

10-Day Weather Forecast

Almanac

Astronomy

Feb. 13, 2016 Rise Set
Actual Time
Civil Twilight
Nautical Twilight
Astronomical Twilight
Moon
Length of Visible Light
Length of Day
Tomorrow will be .
, % of the Moon is Illuminated

Today's Extremes

State Highs State Lows

Community

WunderPhotos

Upload Photos

1,892,751 photos uploaded!

WunderBlog® & News

Nearby

Air Quality

  Air Quality AQ Index Pollutant
Not available.

Snow Depth

Station Depth Elevation

Earthquake Activity

City Distance Mag. Time & Date
Minimum magnitude displayed is 2.5.

Coastal Water Temperatures

Place Temperature

Stations

Nearby Weather Stations

Station Location Temp. Windchill Dew Point Humidity Wind Precip. Elev Updated Type
                   

Watches & Warnings

Winter Weather Advisory
Issued: 8:39 PM CST Feb. 13, 2016 – National Weather Service

... Winter Weather Advisory remains in effect until noon CST
Sunday...

* expect snow to develop before midnight and then diminish around
noon on Sunday.

* The heaviest snowfall rates will occur between 2 am and 8 am
Sunday.

* Total snow accumulations of 2 to 5 inches are expected.

* Look for reduced visibilities at times.

* Plan on slippery Road conditions.

Precautionary/preparedness actions...

A Winter Weather Advisory for snow means periods of snow will
cause primarily travel difficulties. Be prepared for snow covered
roads and limited visibilities... and use caution while driving.
The latest Road conditions for the state you are calling from can
be obtained by calling 5 1 1.